createdAt,value
2023-01-01T00:01:17.319Z,3.33
2023-01-01T00:03:47.128Z,4.08
2023-01-01T00:06:15.357Z,4.67
2023-01-01T00:08:43.652Z,3.02
2023-01-01T00:11:12.285Z,3.02
2023-01-01T00:13:41.394Z,2.85
2023-01-01T00:16:10.674Z,1.98
2023-01-01T00:18:39.156Z,1.85
2023-01-01T00:21:08.663Z,2.10
2023-01-01T00:23:36.892Z,1.70
2023-01-01T00:26:15.216Z,0.95
2023-01-01T00:28:44.001Z,1.12
2023-01-01T00:31:19.809Z,2.37
2023-01-01T00:33:49.582Z,1.75
2023-01-01T00:36:18.594Z,1.70
2023-01-01T00:38:46.955Z,0.30
2023-01-01T00:41:16.034Z,0.40
2023-01-01T00:43:44.348Z,0.75
2023-01-01T00:46:12.729Z,0.47
2023-01-01T00:48:40.911Z,0.62
2023-01-01T00:51:09.307Z,0.28
2023-01-01T00:53:37.577Z,0.20
2023-01-01T00:56:06.124Z,0.20
2023-01-01T00:58:34.334Z,0.20
2023-01-01T01:01:02.652Z,0.10
2023-01-01T01:03:31.173Z,0.30
2023-01-01T01:06:00.838Z,0.10
2023-01-01T01:08:31.250Z,0.57
2023-01-01T01:11:13.130Z,0.00
2023-01-01T01:13:42.226Z,0.20
2023-01-01T01:16:11.507Z,0.30
2023-01-01T01:18:39.793Z,0.10
2023-01-01T01:21:08.020Z,0.10
2023-01-01T01:23:36.431Z,0.10
2023-01-01T01:26:12.149Z,0.20
2023-01-01T01:28:47.125Z,0.10
2023-01-01T01:31:11.120Z,0.33
2023-01-01T01:33:39.734Z,0.10
2023-01-01T01:36:08.016Z,0.10
2023-01-01T01:38:36.240Z,0.10
2023-01-01T01:41:04.619Z,0.42
2023-01-01T01:43:34.379Z,0.10
2023-01-01T01:46:04.207Z,0.20
2023-01-01T01:48:36.953Z,0.70
2023-01-01T01:53:34.071Z,0.80
2023-01-01T01:56:03.835Z,0.10
2023-01-01T01:58:32.336Z,0.20
2023-01-01T02:01:00.742Z,0.40
2023-01-01T02:03:33.981Z,0.50
2023-01-01T02:06:02.732Z,0.35
2023-01-01T02:08:31.018Z,0.10
2023-01-01T02:10:59.246Z,0.20
2023-01-01T02:13:27.667Z,0.10
2023-01-01T02:15:57.426Z,0.10
2023-01-01T02:18:26.615Z,0.25
2023-01-01T02:20:56.365Z,0.10
2023-01-01T02:23:26.161Z,0.05
2023-01-01T02:26:12.381Z,0.10
2023-01-01T02:28:51.159Z,0.10
2023-01-01T02:31:23.954Z,0.10
2023-01-01T02:33:53.763Z,0.20
2023-01-01T02:36:23.515Z,0.30
2023-01-01T02:38:53.071Z,0.10
2023-01-01T02:41:25.717Z,0.37
2023-01-01T02:43:54.179Z,0.10
2023-01-01T02:48:53.836Z,0.20
2023-01-01T02:51:41.765Z,0.10
2023-01-01T02:54:11.605Z,0.10
2023-01-01T02:56:41.545Z,0.30
2023-01-01T02:59:41.270Z,0.35
2023-01-01T03:02:13.890Z,0.10
2023-01-01T03:07:12.553Z,0.10
2023-01-01T03:09:58.844Z,0.10
2023-01-01T03:12:32.886Z,0.10
2023-01-01T03:15:02.628Z,0.65
2023-01-01T03:17:32.390Z,0.00
2023-01-01T03:20:01.956Z,0.10
2023-01-01T03:22:31.736Z,0.10
2023-01-01T03:25:01.476Z,0.35
2023-01-01T03:27:31.294Z,0.00
2023-01-01T03:30:01.092Z,0.10
2023-01-01T03:32:32.466Z,0.10
2023-01-01T03:35:00.747Z,0.10
2023-01-01T03:37:29.542Z,0.00
2023-01-01T03:39:59.007Z,0.00
2023-01-01T03:42:34.663Z,0.00
2023-01-01T03:45:04.390Z,0.05
2023-01-01T03:47:32.815Z,0.10
2023-01-01T03:50:01.272Z,0.42
2023-01-01T03:52:37.104Z,0.10
2023-01-01T03:55:15.913Z,0.10
2023-01-01T03:57:51.387Z,0.10
2023-01-01T04:00:20.957Z,0.10
2023-01-01T04:02:50.842Z,0.10
2023-01-01T04:05:19.952Z,0.17
2023-01-01T04:10:19.041Z,0.10
2023-01-01T04:12:51.469Z,0.10
2023-01-01T04:15:20.541Z,0.45
2023-01-01T04:17:48.837Z,0.03
2023-01-01T04:20:17.515Z,0.28
2023-01-01T04:22:46.223Z,0.00
2023-01-01T04:25:15.029Z,0.00
2023-01-01T04:27:43.209Z,0.10
2023-01-01T04:30:12.601Z,0.10
2023-01-01T04:32:40.916Z,0.30
2023-01-01T04:35:09.887Z,0.10
2023-01-01T04:37:38.384Z,0.13
2023-01-01T04:40:07.378Z,0.00
2023-01-01T04:42:35.880Z,0.00
2023-01-01T04:45:04.267Z,0.25
2023-01-01T04:47:32.484Z,0.10
2023-01-01T04:50:00.679Z,0.00
2023-01-01T04:52:28.897Z,0.10
2023-01-01T04:54:57.108Z,0.10
2023-01-01T04:57:25.344Z,0.08
2023-01-01T04:59:53.530Z,0.10
2023-01-01T05:02:22.815Z,0.10
2023-01-01T05:04:51.083Z,0.20
2023-01-01T05:07:19.262Z,0.10
2023-01-01T05:09:47.486Z,0.00
2023-01-01T05:12:15.692Z,0.10
2023-01-01T05:14:43.872Z,0.10
2023-01-01T05:17:12.106Z,0.00
2023-01-01T05:19:40.598Z,0.00
2023-01-01T05:22:11.116Z,0.00
2023-01-01T05:24:38.671Z,0.10
2023-01-01T05:27:06.921Z,0.10
2023-01-01T05:29:35.086Z,0.10
2023-01-01T05:32:03.439Z,0.10
2023-01-01T05:36:59.212Z,0.10
2023-01-01T05:39:27.431Z,0.10
2023-01-01T05:41:55.695Z,0.15
2023-01-01T05:44:23.929Z,0.03
2023-01-01T05:46:52.132Z,0.10
2023-01-01T05:49:20.358Z,0.10
2023-01-01T05:51:48.587Z,0.10
2023-01-01T05:56:44.168Z,0.00
2023-01-01T05:59:12.390Z,0.10
2023-01-01T06:01:45.556Z,0.10
2023-01-01T06:04:10.536Z,0.40
2023-01-01T06:06:38.820Z,0.10
2023-01-01T06:09:07.029Z,0.10
2023-01-01T06:11:35.229Z,0.10
2023-01-01T06:14:03.439Z,0.13
2023-01-01T06:16:32.175Z,0.10
2023-01-01T06:19:00.442Z,0.10
2023-01-01T06:21:29.595Z,0.17
2023-01-01T06:23:58.560Z,0.00
2023-01-01T06:26:28.243Z,0.10
2023-01-01T06:28:56.903Z,0.10
2023-01-01T06:31:25.298Z,0.08
2023-01-01T06:33:54.164Z,0.10
2023-01-01T06:36:23.836Z,0.10
2023-01-01T06:38:53.333Z,0.10
2023-01-01T06:41:22.808Z,0.10
2023-01-01T06:43:51.171Z,0.10
2023-01-01T06:46:21.299Z,0.10
2023-01-01T06:48:50.249Z,0.00
2023-01-01T06:51:19.431Z,0.08
2023-01-01T06:53:48.315Z,0.10
2023-01-01T06:56:16.781Z,0.10
2023-01-01T06:58:45.067Z,0.10
2023-01-01T07:01:14.998Z,0.10
2023-01-01T07:03:43.573Z,0.10
2023-01-01T07:06:11.887Z,0.10
2023-01-01T07:08:40.147Z,0.10
2023-01-01T07:11:08.376Z,0.10
2023-01-01T07:13:36.640Z,0.00
2023-01-01T07:16:12.146Z,0.00
2023-01-01T07:18:35.262Z,0.10
2023-01-01T07:21:04.431Z,0.15
2023-01-01T07:23:34.202Z,0.00
2023-01-01T07:26:02.487Z,0.00
2023-01-01T07:28:30.692Z,0.10
2023-01-01T07:30:58.945Z,0.10
2023-01-01T07:33:27.117Z,0.10
2023-01-01T07:35:55.330Z,0.20
2023-01-01T07:38:23.544Z,0.10
2023-01-01T07:40:51.766Z,0.00
2023-01-01T07:43:19.953Z,0.13
2023-01-01T07:45:48.194Z,0.00
2023-01-01T07:48:16.739Z,0.10
2023-01-01T07:50:44.950Z,0.10
2023-01-01T07:53:13.217Z,0.10
2023-01-01T07:55:41.453Z,0.10
2023-01-01T07:58:10.532Z,0.30
2023-01-01T08:00:39.090Z,0.30
2023-01-01T08:03:07.818Z,0.10
2023-01-01T08:05:36.055Z,0.10
2023-01-01T08:08:04.317Z,0.20
2023-01-01T08:10:32.619Z,0.10
2023-01-01T08:13:01.483Z,0.30
2023-01-01T08:15:29.969Z,0.10
2023-01-01T08:17:58.869Z,0.10
2023-01-01T08:20:27.856Z,0.00
2023-01-01T08:22:59.029Z,0.30
2023-01-01T08:25:26.144Z,0.40
2023-01-01T08:27:54.384Z,0.10
2023-01-01T08:30:22.642Z,0.10
2023-01-01T08:32:50.813Z,0.20
2023-01-01T08:35:19.032Z,0.00
2023-01-01T08:37:47.400Z,0.10
2023-01-01T08:40:16.383Z,0.10
2023-01-01T08:42:44.596Z,0.10
2023-01-01T08:45:12.843Z,0.10
2023-01-01T08:47:41.042Z,0.10
2023-01-01T08:50:09.480Z,0.10
2023-01-01T08:52:37.745Z,0.10
2023-01-01T08:55:06.141Z,0.10
2023-01-01T08:57:34.372Z,0.03
2023-01-01T09:00:02.647Z,0.10
2023-01-01T09:02:30.931Z,0.08
2023-01-01T09:04:59.274Z,0.00
2023-01-01T09:07:27.483Z,0.10
2023-01-01T09:09:55.693Z,0.20
2023-01-01T09:12:23.916Z,0.45
2023-01-01T09:14:52.126Z,0.00
2023-01-01T09:17:20.350Z,0.10
2023-01-01T09:19:48.571Z,0.00
2023-01-01T09:22:16.863Z,0.10
2023-01-01T09:24:45.070Z,0.10
2023-01-01T09:27:13.284Z,0.00
2023-01-01T09:29:41.585Z,0.10
2023-01-01T09:32:09.795Z,0.08
2023-01-01T09:34:38.035Z,0.10
2023-01-01T09:37:06.224Z,0.05
2023-01-01T09:39:34.480Z,0.00
2023-01-01T09:42:17.656Z,0.10
2023-01-01T09:44:53.855Z,0.00
2023-01-01T09:47:23.611Z,0.10
2023-01-01T09:49:53.193Z,0.00
2023-01-01T09:52:21.880Z,0.10
2023-01-01T09:54:54.538Z,0.10
2023-01-01T09:57:24.470Z,0.20
2023-01-01T09:59:52.869Z,0.10
2023-01-01T10:02:34.613Z,0.00
2023-01-01T10:05:04.367Z,0.20
2023-01-01T10:07:34.098Z,0.00
2023-01-01T10:10:06.562Z,0.08
2023-01-01T10:12:39.222Z,0.08
2023-01-01T10:15:14.658Z,0.10
2023-01-01T10:17:44.542Z,0.00
2023-01-01T10:20:17.382Z,0.10
2023-01-01T10:22:47.114Z,0.10
2023-01-01T10:25:19.548Z,0.00
2023-01-01T10:27:53.859Z,0.10
2023-01-01T10:30:20.657Z,0.15
2023-01-01T10:32:49.935Z,0.10
2023-01-01T10:35:19.992Z,0.08
2023-01-01T10:37:49.881Z,0.10
2023-01-01T10:40:19.898Z,0.10
2023-01-01T10:42:49.861Z,0.10
2023-01-01T10:45:19.652Z,0.00
2023-01-01T10:48:05.882Z,0.10
2023-01-01T10:50:44.367Z,0.00
2023-01-01T10:53:32.168Z,0.00
2023-01-01T10:56:01.917Z,0.10
2023-01-01T10:58:46.494Z,0.10
2023-01-01T11:01:28.315Z,0.10
2023-01-01T11:03:58.338Z,0.13
2023-01-01T11:06:28.058Z,0.10
2023-01-01T11:08:57.245Z,0.23
2023-01-01T11:11:29.823Z,0.10
2023-01-01T11:13:59.514Z,0.00
2023-01-01T11:16:29.458Z,0.10
2023-01-01T11:19:07.834Z,0.33
2023-01-01T11:21:36.365Z,0.00
2023-01-01T11:24:12.060Z,0.00
2023-01-01T11:26:40.272Z,0.00
2023-01-01T11:29:19.289Z,0.10
2023-01-01T11:31:48.067Z,0.23
2023-01-01T11:34:26.731Z,0.20
2023-01-01T11:36:56.483Z,0.00
2023-01-01T11:39:28.991Z,0.00
2023-01-01T11:41:58.059Z,0.10
2023-01-01T11:44:39.873Z,0.10
2023-01-01T11:47:08.929Z,0.10
2023-01-01T11:49:37.201Z,0.10
2023-01-01T11:52:07.161Z,0.10
2023-01-01T11:54:38.600Z,0.10
2023-01-01T11:57:08.342Z,0.00
2023-01-01T11:59:44.166Z,0.00
2023-01-01T12:02:14.012Z,0.00
2023-01-01T12:04:43.749Z,0.28
2023-01-01T12:07:13.493Z,0.10
2023-01-01T12:09:43.261Z,0.10
2023-01-01T12:12:13.021Z,0.00
2023-01-01T12:14:42.781Z,0.00
2023-01-01T12:17:12.621Z,0.00
2023-01-01T12:19:42.395Z,0.10
2023-01-01T12:22:19.253Z,0.00
2023-01-01T12:24:48.800Z,0.00
2023-01-01T12:27:18.587Z,0.10
2023-01-01T12:29:48.337Z,0.00
2023-01-01T12:32:21.053Z,0.10
2023-01-01T12:37:36.436Z,0.00
2023-01-01T12:40:15.024Z,0.00
2023-01-01T12:42:56.867Z,0.00
2023-01-01T12:45:35.659Z,0.10
2023-01-01T12:48:05.414Z,0.10
2023-01-01T12:50:38.164Z,0.10
2023-01-01T12:55:51.864Z,0.00
2023-01-01T12:58:21.797Z,0.10
2023-01-01T13:01:03.629Z,0.08
2023-01-01T13:03:33.389Z,0.10
2023-01-01T13:06:01.755Z,0.10
2023-01-01T13:08:30.253Z,0.00
2023-01-01T13:11:01.026Z,0.00
2023-01-01T13:13:29.430Z,0.10
2023-01-01T13:15:58.119Z,0.10
2023-01-01T13:18:30.789Z,0.10
2023-01-01T13:23:35.662Z,0.00
2023-01-01T13:26:21.397Z,0.00
2023-01-01T13:29:00.505Z,0.10
2023-01-01T13:31:42.213Z,0.10
2023-01-01T13:34:28.437Z,0.00
2023-01-01T13:37:17.729Z,0.00
2023-01-01T13:39:55.918Z,0.10
2023-01-01T13:42:39.886Z,0.00
2023-01-01T13:46:09.366Z,0.10
2023-01-01T13:48:09.407Z,0.00
2023-01-01T13:50:42.175Z,0.00
2023-01-01T13:55:55.782Z,0.10
2023-01-01T13:58:41.830Z,0.00
2023-01-01T14:01:15.012Z,0.10
2023-01-01T14:03:44.743Z,0.10
2023-01-01T14:06:14.003Z,0.10
2023-01-01T14:08:42.291Z,0.10
2023-01-01T14:11:20.733Z,0.10
2023-01-01T14:13:49.024Z,0.03
2023-01-01T14:16:17.327Z,0.00
2023-01-01T14:18:49.988Z,0.00
2023-01-01T14:23:47.300Z,0.10
2023-01-01T14:26:17.127Z,0.00
2023-01-01T14:28:45.631Z,0.13
2023-01-01T14:31:15.489Z,0.10
2023-01-01T14:33:43.731Z,0.35
2023-01-01T14:36:22.588Z,0.20
2023-01-01T14:38:51.837Z,0.33
2023-01-01T14:41:21.618Z,0.30
2023-01-01T14:43:51.310Z,0.10
2023-01-01T14:46:27.504Z,0.10
2023-01-01T14:48:59.579Z,0.10
2023-01-01T14:51:30.349Z,0.20
2023-01-01T14:54:02.823Z,1.98
2023-01-01T14:56:34.735Z,0.10
2023-01-01T14:59:10.515Z,0.10
2023-01-01T15:01:40.814Z,0.20
2023-01-01T15:04:22.527Z,0.10
2023-01-01T15:06:57.572Z,0.00
2023-01-01T15:09:26.633Z,0.10
2023-01-01T15:11:56.093Z,0.10
2023-01-01T15:14:37.803Z,0.10
2023-01-01T15:17:07.247Z,0.00
2023-01-01T15:19:36.461Z,0.10
2023-01-01T15:22:12.182Z,0.08
2023-01-01T15:24:40.705Z,0.20
2023-01-01T15:27:10.451Z,0.10
2023-01-01T15:29:43.086Z,0.20
2023-01-01T15:32:12.628Z,0.10
2023-01-01T15:34:48.627Z,0.10
2023-01-01T15:37:36.294Z,0.28
2023-01-01T15:40:08.767Z,0.10
2023-01-01T15:42:38.253Z,0.10
2023-01-01T15:45:17.066Z,0.10
2023-01-01T15:47:45.356Z,0.10
2023-01-01T15:50:30.090Z,0.00
2023-01-01T15:53:02.730Z,0.03
2023-01-01T15:57:58.774Z,0.13
2023-01-01T16:00:29.179Z,0.30
2023-01-01T16:02:59.005Z,0.08
2023-01-01T16:05:28.033Z,0.10
2023-01-01T16:08:03.889Z,0.25
2023-01-01T16:10:32.456Z,0.00
2023-01-01T16:13:00.679Z,0.00
2023-01-01T16:15:28.996Z,0.10
2023-01-01T16:17:57.221Z,0.62
2023-01-01T16:20:26.207Z,0.10
2023-01-01T16:22:54.406Z,0.10
2023-01-01T16:25:24.500Z,0.10
2023-01-01T16:27:52.816Z,0.10
2023-01-01T16:30:22.585Z,0.10
2023-01-01T16:32:50.810Z,0.23
2023-01-01T16:35:19.159Z,0.10
2023-01-01T16:37:47.417Z,0.10
2023-01-01T16:40:15.833Z,0.30
2023-01-01T16:42:44.050Z,0.10
2023-01-01T16:45:13.819Z,0.10
2023-01-01T16:47:42.126Z,0.42
2023-01-01T16:50:10.966Z,0.62
2023-01-01T16:52:44.372Z,0.10
2023-01-01T16:55:09.195Z,0.10
2023-01-01T16:57:37.495Z,0.10
2023-01-01T17:00:05.871Z,0.30
2023-01-01T17:02:34.359Z,0.20
2023-01-01T17:05:02.694Z,0.10
2023-01-01T17:07:31.279Z,0.10
2023-01-01T17:09:59.585Z,0.75
2023-01-01T17:12:27.843Z,0.20
2023-01-01T17:14:56.210Z,0.95
2023-01-01T17:17:24.550Z,0.20
2023-01-01T17:19:52.819Z,0.10
2023-01-01T17:22:21.457Z,0.20
2023-01-01T17:24:49.713Z,0.20
2023-01-01T17:27:18.070Z,0.20
2023-01-01T17:29:46.319Z,1.30
2023-01-01T17:32:15.363Z,0.82
2023-01-01T17:34:43.715Z,0.25
2023-01-01T17:37:12.073Z,0.30
2023-01-01T17:39:40.405Z,0.10
2023-01-01T17:42:08.749Z,0.10
2023-01-01T17:44:37.007Z,0.20
2023-01-01T17:47:05.305Z,0.10
2023-01-01T17:49:33.629Z,0.42
2023-01-01T17:52:01.953Z,0.20
2023-01-01T17:54:30.384Z,0.10
2023-01-01T17:57:00.380Z,0.10
2023-01-01T17:59:28.658Z,0.28
2023-01-01T18:01:57.245Z,0.20
2023-01-01T18:04:25.545Z,0.10
2023-01-01T18:06:55.466Z,0.23
2023-01-01T18:09:25.117Z,0.33
2023-01-01T18:11:53.327Z,0.40
2023-01-01T18:14:24.606Z,0.10
2023-01-01T18:16:51.462Z,0.35
2023-01-01T18:19:19.779Z,0.50
2023-01-01T18:21:48.047Z,0.33
2023-01-01T18:24:16.895Z,0.10
2023-01-01T18:26:45.238Z,0.20
2023-01-01T18:29:13.504Z,0.30
2023-01-01T18:31:41.948Z,0.20
2023-01-01T18:34:11.102Z,0.57
2023-01-01T18:36:39.588Z,0.20
2023-01-01T18:39:12.364Z,0.60
2023-01-01T18:44:22.622Z,0.10
2023-01-01T18:46:52.497Z,0.30
2023-01-01T18:49:23.578Z,0.68
2023-01-01T18:51:53.396Z,0.35
2023-01-01T18:54:21.740Z,0.10
2023-01-01T18:56:50.757Z,0.70
2023-01-01T18:59:20.680Z,0.53
2023-01-01T19:01:49.400Z,0.20
2023-01-01T19:04:19.466Z,0.20
2023-01-01T19:06:47.863Z,0.62
2023-01-01T19:09:20.814Z,0.20
2023-01-01T19:11:49.670Z,0.85
2023-01-01T19:14:19.433Z,0.35
2023-01-01T19:16:48.689Z,0.95
2023-01-01T19:19:18.524Z,0.98
2023-01-01T19:21:51.568Z,0.50
2023-01-01T19:24:24.766Z,0.28
2023-01-01T19:27:11.326Z,1.15
2023-01-01T19:29:41.091Z,0.37
2023-01-01T19:32:09.311Z,0.37
2023-01-01T19:34:38.979Z,0.45
2023-01-01T19:37:07.772Z,0.75
2023-01-01T19:39:36.534Z,0.53
2023-01-01T19:42:06.744Z,0.57
2023-01-01T19:44:35.234Z,0.40
2023-01-01T19:47:08.376Z,0.30
2023-01-01T19:49:36.624Z,0.82
2023-01-01T19:52:06.070Z,0.45
2023-01-01T19:54:34.335Z,0.20
2023-01-01T19:57:02.531Z,1.20
2023-01-01T19:59:33.344Z,0.72
2023-01-01T20:04:32.159Z,0.30
2023-01-01T20:07:00.581Z,0.20
2023-01-01T20:09:28.877Z,0.50
2023-01-01T20:11:57.085Z,0.40
2023-01-01T20:14:25.290Z,0.10
2023-01-01T20:16:53.692Z,0.28
2023-01-01T20:19:21.922Z,0.28
2023-01-01T20:22:07.860Z,0.50
2023-01-01T20:24:36.745Z,0.42
2023-01-01T20:27:05.057Z,0.55
2023-01-01T20:29:33.266Z,0.20
2023-01-01T20:32:01.642Z,0.10
2023-01-01T20:34:30.119Z,0.23
2023-01-01T20:37:15.947Z,0.20
2023-01-01T20:39:44.253Z,0.20
2023-01-01T20:42:12.599Z,0.23
2023-01-01T20:44:42.692Z,0.20
2023-01-01T20:47:11.375Z,0.53
2023-01-01T20:49:39.818Z,1.67
2023-01-01T20:52:08.238Z,0.28
2023-01-01T20:54:36.549Z,0.20
2023-01-01T20:57:04.756Z,0.75
2023-01-01T20:59:37.756Z,0.50
2023-01-01T21:02:03.340Z,0.20
2023-01-01T21:04:31.757Z,0.68
2023-01-01T21:07:00.967Z,0.62
2023-01-01T21:09:29.185Z,0.30
2023-01-01T21:11:57.403Z,0.25
2023-01-01T21:14:25.727Z,0.80
2023-01-01T21:16:54.043Z,0.20
2023-01-01T21:19:26.624Z,0.10
2023-01-01T21:21:53.186Z,0.90
2023-01-01T21:24:23.236Z,1.65
2023-01-01T21:26:52.986Z,0.75
2023-01-01T21:29:22.974Z,0.57
2023-01-01T21:31:52.941Z,0.10
2023-01-01T21:34:25.778Z,0.45
2023-01-01T21:39:23.154Z,0.93
2023-01-01T21:41:51.949Z,0.25
2023-01-01T21:44:20.145Z,0.15
2023-01-01T21:46:50.113Z,0.17
2023-01-01T21:49:20.833Z,0.20
2023-01-01T21:51:51.179Z,1.02
2023-01-01T21:54:23.688Z,0.30
2023-01-01T21:57:01.856Z,0.40
2023-01-01T21:59:31.626Z,0.47
2023-01-01T22:02:07.368Z,0.78
2023-01-01T22:04:40.282Z,0.33
2023-01-01T22:09:51.973Z,0.10
2023-01-01T22:12:27.408Z,0.57
2023-01-01T22:14:56.171Z,0.17
2023-01-01T22:17:36.873Z,0.65
2023-01-01T22:20:09.077Z,0.20
2023-01-01T22:22:37.312Z,0.10
2023-01-01T22:25:23.571Z,0.75
2023-01-01T22:27:51.783Z,0.30
2023-01-01T22:30:21.548Z,0.20
2023-01-01T22:32:51.289Z,0.47
2023-01-01T22:35:20.466Z,0.30
2023-01-01T22:37:55.552Z,0.15
2023-01-01T22:40:20.914Z,0.10
2023-01-01T22:42:49.161Z,0.23
2023-01-01T22:45:17.399Z,0.30
2023-01-01T22:47:45.710Z,0.47
2023-01-01T22:50:23.967Z,0.30
2023-01-01T22:52:52.182Z,0.40
2023-01-01T22:55:20.466Z,0.53
2023-01-01T22:57:48.753Z,1.17
2023-01-01T23:00:17.949Z,0.42
2023-01-01T23:02:46.573Z,0.25
2023-01-01T23:05:14.827Z,0.37
2023-01-01T23:07:43.278Z,0.20
2023-01-01T23:10:15.762Z,0.57
2023-01-01T23:12:44.073Z,0.17
2023-01-01T23:15:30.253Z,0.17
2023-01-01T23:17:58.571Z,1.75
2023-01-01T23:20:26.951Z,0.30
2023-01-01T23:22:55.727Z,0.10
2023-01-01T23:25:24.311Z,0.98
2023-01-01T23:27:53.030Z,0.53
2023-01-01T23:30:21.278Z,0.65
2023-01-01T23:32:49.597Z,0.50
2023-01-01T23:35:17.915Z,0.13
2023-01-01T23:37:46.186Z,0.20
2023-01-01T23:40:14.421Z,0.20
2023-01-01T23:42:42.691Z,0.05
2023-01-01T23:45:10.967Z,0.10
2023-01-01T23:47:40.337Z,1.27
2023-01-01T23:50:08.887Z,0.30
2023-01-01T23:52:37.273Z,0.00
2023-01-01T23:55:05.745Z,0.00
2023-01-01T23:57:34.032Z,0.10
